sensor_id;sensor_type;location;lat;lon;timestamp;P1;durP1;ratioP1;P2;durP2;ratioP2
6614;SDS011;3343;42.896;23.912;2022-10-24T00:00:39;2.07;;;1.80;;
6614;SDS011;3343;42.896;23.912;2022-10-24T00:03:06;4.23;;;1.70;;
6614;SDS011;3343;42.896;23.912;2022-10-24T00:05:33;2.17;;;1.60;;
6614;SDS011;3343;42.896;23.912;2022-10-24T00:08:00;2.53;;;1.80;;
6614;SDS011;3343;42.896;23.912;2022-10-24T00:10:27;2.13;;;1.73;;
6614;SDS011;3343;42.896;23.912;2022-10-24T00:12:54;8.63;;;2.07;;
6614;SDS011;3343;42.896;23.912;2022-10-24T00:15:22;2.60;;;1.93;;
6614;SDS011;3343;42.896;23.912;2022-10-24T00:17:49;2.90;;;1.73;;
6614;SDS011;3343;42.896;23.912;2022-10-24T00:20:16;4.13;;;1.80;;
6614;SDS011;3343;42.896;23.912;2022-10-24T00:22:43;2.97;;;1.87;;
6614;SDS011;3343;42.896;23.912;2022-10-24T00:25:10;5.17;;;2.10;;
6614;SDS011;3343;42.896;23.912;2022-10-24T00:27:37;6.43;;;2.03;;
6614;SDS011;3343;42.896;23.912;2022-10-24T00:30:04;2.13;;;1.50;;
6614;SDS011;3343;42.896;23.912;2022-10-24T00:32:33;2.53;;;1.43;;
6614;SDS011;3343;42.896;23.912;2022-10-24T00:35:00;3.73;;;1.57;;
6614;SDS011;3343;42.896;23.912;2022-10-24T00:37:27;1.70;;;1.40;;
6614;SDS011;3343;42.896;23.912;2022-10-24T00:39:54;2.80;;;1.97;;
6614;SDS011;3343;42.896;23.912;2022-10-24T00:42:21;3.13;;;2.00;;
6614;SDS011;3343;42.896;23.912;2022-10-24T00:44:48;3.13;;;2.20;;
6614;SDS011;3343;42.896;23.912;2022-10-24T00:47:18;2.03;;;1.57;;
6614;SDS011;3343;42.896;23.912;2022-10-24T00:49:50;1.63;;;1.47;;
6614;SDS011;3343;42.896;23.912;2022-10-24T00:52:25;1.83;;;1.60;;
6614;SDS011;3343;42.896;23.912;2022-10-24T00:54:54;2.00;;;1.60;;
6614;SDS011;3343;42.896;23.912;2022-10-24T00:57:25;2.60;;;1.90;;
6614;SDS011;3343;42.896;23.912;2022-10-24T00:59:57;1.93;;;1.70;;
6614;SDS011;3343;42.896;23.912;2022-10-24T01:02:30;2.83;;;1.93;;
6614;SDS011;3343;42.896;23.912;2022-10-24T01:04:58;1.93;;;1.70;;
6614;SDS011;3343;42.896;23.912;2022-10-24T01:07:28;3.47;;;1.77;;
6614;SDS011;3343;42.896;23.912;2022-10-24T01:10:10;3.50;;;1.77;;
6614;SDS011;3343;42.896;23.912;2022-10-24T01:12:54;2.63;;;1.77;;
6614;SDS011;3343;42.896;23.912;2022-10-24T01:15:30;2.10;;;1.70;;
6614;SDS011;3343;42.896;23.912;2022-10-24T01:18:05;2.27;;;1.67;;
6614;SDS011;3343;42.896;23.912;2022-10-24T01:20:51;2.90;;;1.80;;
6614;SDS011;3343;42.896;23.912;2022-10-24T01:26:53;2.53;;;1.90;;
6614;SDS011;3343;42.896;23.912;2022-10-24T01:29:46;2.53;;;1.97;;
6614;SDS011;3343;42.896;23.912;2022-10-24T01:32:20;2.13;;;1.77;;
6614;SDS011;3343;42.896;23.912;2022-10-24T01:34:58;3.20;;;2.87;;
6614;SDS011;3343;42.896;23.912;2022-10-24T01:37:29;2.60;;;1.83;;
6614;SDS011;3343;42.896;23.912;2022-10-24T01:40:02;1.70;;;1.47;;
6614;SDS011;3343;42.896;23.912;2022-10-24T01:42:34;2.13;;;1.53;;
6614;SDS011;3343;42.896;23.912;2022-10-24T01:45:07;2.80;;;1.80;;
6614;SDS011;3343;42.896;23.912;2022-10-24T01:47:37;4.73;;;1.50;;
6614;SDS011;3343;42.896;23.912;2022-10-24T01:50:10;1.87;;;1.40;;
6614;SDS011;3343;42.896;23.912;2022-10-24T01:52:39;2.50;;;1.90;;
6614;SDS011;3343;42.896;23.912;2022-10-24T01:55:09;2.43;;;1.80;;
6614;SDS011;3343;42.896;23.912;2022-10-24T01:57:36;2.50;;;1.77;;
6614;SDS011;3343;42.896;23.912;2022-10-24T02:00:05;1.87;;;1.67;;
6614;SDS011;3343;42.896;23.912;2022-10-24T02:02:35;2.20;;;1.70;;
6614;SDS011;3343;42.896;23.912;2022-10-24T02:05:06;2.70;;;1.93;;
6614;SDS011;3343;42.896;23.912;2022-10-24T02:07:38;2.33;;;1.97;;
6614;SDS011;3343;42.896;23.912;2022-10-24T02:10:08;4.00;;;1.80;;
6614;SDS011;3343;42.896;23.912;2022-10-24T02:12:40;2.93;;;1.90;;
6614;SDS011;3343;42.896;23.912;2022-10-24T02:15:12;3.10;;;1.90;;
6614;SDS011;3343;42.896;23.912;2022-10-24T02:17:44;2.43;;;1.80;;
6614;SDS011;3343;42.896;23.912;2022-10-24T02:20:11;2.13;;;1.50;;
6614;SDS011;3343;42.896;23.912;2022-10-24T02:22:40;2.30;;;1.87;;
6614;SDS011;3343;42.896;23.912;2022-10-24T02:25:13;2.57;;;1.50;;
6614;SDS011;3343;42.896;23.912;2022-10-24T02:27:48;3.10;;;1.83;;
6614;SDS011;3343;42.896;23.912;2022-10-24T02:30:20;1.97;;;1.77;;
6614;SDS011;3343;42.896;23.912;2022-10-24T02:32:49;2.27;;;1.77;;
6614;SDS011;3343;42.896;23.912;2022-10-24T02:35:19;1.67;;;1.50;;
6614;SDS011;3343;42.896;23.912;2022-10-24T02:37:52;3.50;;;1.70;;
6614;SDS011;3343;42.896;23.912;2022-10-24T02:40:23;3.33;;;1.70;;
6614;SDS011;3343;42.896;23.912;2022-10-24T02:42:50;2.83;;;1.50;;
6614;SDS011;3343;42.896;23.912;2022-10-24T02:45:21;6.17;;;1.73;;
6614;SDS011;3343;42.896;23.912;2022-10-24T02:47:49;5.43;;;1.77;;
6614;SDS011;3343;42.896;23.912;2022-10-24T02:50:20;1.40;;;1.30;;
6614;SDS011;3343;42.896;23.912;2022-10-24T02:52:48;2.20;;;1.67;;
6614;SDS011;3343;42.896;23.912;2022-10-24T02:55:15;1.50;;;1.37;;
6614;SDS011;3343;42.896;23.912;2022-10-24T02:57:42;2.43;;;1.57;;
6614;SDS011;3343;42.896;23.912;2022-10-24T03:00:09;1.87;;;1.57;;
6614;SDS011;3343;42.896;23.912;2022-10-24T03:02:38;3.27;;;1.63;;
6614;SDS011;3343;42.896;23.912;2022-10-24T03:05:06;1.70;;;1.40;;
6614;SDS011;3343;42.896;23.912;2022-10-24T03:07:33;3.93;;;1.67;;
6614;SDS011;3343;42.896;23.912;2022-10-24T03:09:59;1.77;;;1.50;;
6614;SDS011;3343;42.896;23.912;2022-10-24T03:12:26;2.53;;;1.80;;
6614;SDS011;3343;42.896;23.912;2022-10-24T03:14:54;2.83;;;1.70;;
6614;SDS011;3343;42.896;23.912;2022-10-24T03:17:21;2.37;;;1.60;;
6614;SDS011;3343;42.896;23.912;2022-10-24T03:19:49;2.33;;;1.83;;
6614;SDS011;3343;42.896;23.912;2022-10-24T03:22:16;2.90;;;2.17;;
6614;SDS011;3343;42.896;23.912;2022-10-24T03:24:43;3.23;;;2.23;;
6614;SDS011;3343;42.896;23.912;2022-10-24T03:27:10;4.40;;;2.40;;
6614;SDS011;3343;42.896;23.912;2022-10-24T03:29:37;2.40;;;2.17;;
6614;SDS011;3343;42.896;23.912;2022-10-24T03:32:04;3.63;;;2.70;;
6614;SDS011;3343;42.896;23.912;2022-10-24T03:34:30;4.13;;;2.80;;
6614;SDS011;3343;42.896;23.912;2022-10-24T03:36:59;3.67;;;2.33;;
6614;SDS011;3343;42.896;23.912;2022-10-24T03:39:26;3.43;;;2.60;;
6614;SDS011;3343;42.896;23.912;2022-10-24T03:41:53;5.13;;;3.13;;
6614;SDS011;3343;42.896;23.912;2022-10-24T03:44:20;4.07;;;2.63;;
6614;SDS011;3343;42.896;23.912;2022-10-24T03:46:47;5.07;;;3.27;;
6614;SDS011;3343;42.896;23.912;2022-10-24T03:49:14;5.63;;;2.80;;
6614;SDS011;3343;42.896;23.912;2022-10-24T03:51:41;4.93;;;2.83;;
6614;SDS011;3343;42.896;23.912;2022-10-24T03:54:09;5.77;;;2.70;;
6614;SDS011;3343;42.896;23.912;2022-10-24T03:56:39;2.73;;;2.20;;
6614;SDS011;3343;42.896;23.912;2022-10-24T03:59:06;4.07;;;2.53;;
6614;SDS011;3343;42.896;23.912;2022-10-24T04:01:33;6.67;;;2.80;;
6614;SDS011;3343;42.896;23.912;2022-10-24T04:04:00;4.97;;;2.87;;
6614;SDS011;3343;42.896;23.912;2022-10-24T04:06:27;4.13;;;2.70;;
6614;SDS011;3343;42.896;23.912;2022-10-24T04:08:53;3.53;;;1.90;;
6614;SDS011;3343;42.896;23.912;2022-10-24T04:11:22;4.33;;;2.23;;
6614;SDS011;3343;42.896;23.912;2022-10-24T04:13:50;5.43;;;2.50;;
6614;SDS011;3343;42.896;23.912;2022-10-24T04:16:17;2.83;;;1.93;;
6614;SDS011;3343;42.896;23.912;2022-10-24T04:18:44;2.77;;;2.10;;
6614;SDS011;3343;42.896;23.912;2022-10-24T04:21:11;3.20;;;1.97;;
6614;SDS011;3343;42.896;23.912;2022-10-24T04:23:39;3.40;;;2.50;;
6614;SDS011;3343;42.896;23.912;2022-10-24T04:26:08;16.23;;;2.40;;
6614;SDS011;3343;42.896;23.912;2022-10-24T04:28:37;3.20;;;2.37;;
6614;SDS011;3343;42.896;23.912;2022-10-24T04:31:05;3.23;;;2.33;;
6614;SDS011;3343;42.896;23.912;2022-10-24T04:33:32;3.07;;;2.30;;
6614;SDS011;3343;42.896;23.912;2022-10-24T04:36:00;3.03;;;2.30;;
6614;SDS011;3343;42.896;23.912;2022-10-24T04:38:27;3.03;;;2.33;;
6614;SDS011;3343;42.896;23.912;2022-10-24T04:40:54;2.70;;;2.40;;
6614;SDS011;3343;42.896;23.912;2022-10-24T04:43:22;3.70;;;2.50;;
6614;SDS011;3343;42.896;23.912;2022-10-24T04:45:50;6.67;;;3.00;;
6614;SDS011;3343;42.896;23.912;2022-10-24T04:48:17;8.50;;;2.30;;
6614;SDS011;3343;42.896;23.912;2022-10-24T04:50:45;5.83;;;2.70;;
6614;SDS011;3343;42.896;23.912;2022-10-24T04:53:13;8.13;;;2.67;;
6614;SDS011;3343;42.896;23.912;2022-10-24T04:55:40;6.20;;;2.40;;
6614;SDS011;3343;42.896;23.912;2022-10-24T04:58:07;4.63;;;2.83;;
6614;SDS011;3343;42.896;23.912;2022-10-24T05:00:34;9.83;;;2.93;;
6614;SDS011;3343;42.896;23.912;2022-10-24T05:03:02;4.23;;;2.50;;
6614;SDS011;3343;42.896;23.912;2022-10-24T05:05:29;4.20;;;2.50;;
6614;SDS011;3343;42.896;23.912;2022-10-24T05:07:56;14.10;;;2.73;;
6614;SDS011;3343;42.896;23.912;2022-10-24T05:10:23;4.63;;;2.87;;
6614;SDS011;3343;42.896;23.912;2022-10-24T05:12:50;4.67;;;2.90;;
6614;SDS011;3343;42.896;23.912;2022-10-24T05:15:17;7.83;;;3.63;;
6614;SDS011;3343;42.896;23.912;2022-10-24T05:17:43;4.33;;;3.27;;
6614;SDS011;3343;42.896;23.912;2022-10-24T05:20:12;4.90;;;2.70;;
6614;SDS011;3343;42.896;23.912;2022-10-24T05:22:39;5.20;;;3.13;;
6614;SDS011;3343;42.896;23.912;2022-10-24T05:25:06;7.70;;;2.73;;
6614;SDS011;3343;42.896;23.912;2022-10-24T05:27:33;6.13;;;3.27;;
6614;SDS011;3343;42.896;23.912;2022-10-24T05:30:00;5.43;;;3.63;;
6614;SDS011;3343;42.896;23.912;2022-10-24T05:32:27;5.37;;;3.87;;
6614;SDS011;3343;42.896;23.912;2022-10-24T05:34:54;7.63;;;4.60;;
6614;SDS011;3343;42.896;23.912;2022-10-24T05:37:22;7.77;;;4.50;;
6614;SDS011;3343;42.896;23.912;2022-10-24T05:39:49;8.03;;;5.03;;
6614;SDS011;3343;42.896;23.912;2022-10-24T05:42:16;7.60;;;4.87;;
6614;SDS011;3343;42.896;23.912;2022-10-24T05:44:43;5.57;;;4.30;;
6614;SDS011;3343;42.896;23.912;2022-10-24T05:47:10;5.90;;;3.67;;
6614;SDS011;3343;42.896;23.912;2022-10-24T05:49:38;6.80;;;3.53;;
6614;SDS011;3343;42.896;23.912;2022-10-24T05:52:04;3.80;;;3.00;;
6614;SDS011;3343;42.896;23.912;2022-10-24T05:54:33;4.70;;;2.87;;
6614;SDS011;3343;42.896;23.912;2022-10-24T05:57:00;4.10;;;3.00;;
6614;SDS011;3343;42.896;23.912;2022-10-24T05:59:27;3.93;;;2.60;;
6614;SDS011;3343;42.896;23.912;2022-10-24T06:01:54;3.60;;;2.97;;
6614;SDS011;3343;42.896;23.912;2022-10-24T06:04:21;4.27;;;3.20;;
6614;SDS011;3343;42.896;23.912;2022-10-24T06:06:47;4.23;;;3.00;;
6614;SDS011;3343;42.896;23.912;2022-10-24T06:09:14;5.50;;;3.40;;
6614;SDS011;3343;42.896;23.912;2022-10-24T06:11:42;8.17;;;3.00;;
6614;SDS011;3343;42.896;23.912;2022-10-24T06:14:09;4.70;;;3.40;;
6614;SDS011;3343;42.896;23.912;2022-10-24T06:16:36;4.67;;;3.37;;
6614;SDS011;3343;42.896;23.912;2022-10-24T06:19:03;4.10;;;3.00;;
6614;SDS011;3343;42.896;23.912;2022-10-24T06:21:30;4.83;;;3.50;;
6614;SDS011;3343;42.896;23.912;2022-10-24T06:23:57;7.27;;;4.37;;
6614;SDS011;3343;42.896;23.912;2022-10-24T06:26:24;11.50;;;6.87;;
6614;SDS011;3343;42.896;23.912;2022-10-24T06:28:52;15.73;;;6.10;;
6614;SDS011;3343;42.896;23.912;2022-10-24T06:31:19;7.50;;;4.90;;
6614;SDS011;3343;42.896;23.912;2022-10-24T06:33:46;9.17;;;5.13;;
6614;SDS011;3343;42.896;23.912;2022-10-24T06:36:13;7.50;;;5.07;;
6614;SDS011;3343;42.896;23.912;2022-10-24T06:38:41;10.03;;;3.70;;
6614;SDS011;3343;42.896;23.912;2022-10-24T06:41:09;5.57;;;3.80;;
6614;SDS011;3343;42.896;23.912;2022-10-24T06:43:38;5.47;;;3.70;;
6614;SDS011;3343;42.896;23.912;2022-10-24T06:46:09;6.77;;;3.67;;
6614;SDS011;3343;42.896;23.912;2022-10-24T06:48:38;11.67;;;4.77;;
6614;SDS011;3343;42.896;23.912;2022-10-24T06:51:06;6.15;;;4.85;;
6614;SDS011;3343;42.896;23.912;2022-10-24T06:53:34;4.85;;;4.10;;
6614;SDS011;3343;42.896;23.912;2022-10-24T06:56:01;5.38;;;4.25;;
6614;SDS011;3343;42.896;23.912;2022-10-24T06:58:30;4.68;;;3.80;;
6614;SDS011;3343;42.896;23.912;2022-10-24T07:00:58;5.22;;;3.90;;
6614;SDS011;3343;42.896;23.912;2022-10-24T07:03:26;7.78;;;3.50;;
6614;SDS011;3343;42.896;23.912;2022-10-24T07:05:53;6.47;;;4.15;;
6614;SDS011;3343;42.896;23.912;2022-10-24T07:08:20;4.88;;;3.50;;
6614;SDS011;3343;42.896;23.912;2022-10-24T07:10:47;5.55;;;3.75;;
6614;SDS011;3343;42.896;23.912;2022-10-24T07:13:14;8.13;;;3.95;;
6614;SDS011;3343;42.896;23.912;2022-10-24T07:15:41;3.58;;;3.25;;
6614;SDS011;3343;42.896;23.912;2022-10-24T07:18:12;7.95;;;3.95;;
6614;SDS011;3343;42.896;23.912;2022-10-24T07:20:41;6.35;;;4.10;;
6614;SDS011;3343;42.896;23.912;2022-10-24T07:23:08;4.63;;;3.35;;
6614;SDS011;3343;42.896;23.912;2022-10-24T07:25:36;3.45;;;3.00;;
6614;SDS011;3343;42.896;23.912;2022-10-24T07:28:03;11.95;;;3.38;;
6614;SDS011;3343;42.896;23.912;2022-10-24T07:30:31;6.50;;;3.53;;
6614;SDS011;3343;42.896;23.912;2022-10-24T07:32:58;6.53;;;3.80;;
6614;SDS011;3343;42.896;23.912;2022-10-24T07:35:25;8.70;;;4.22;;
6614;SDS011;3343;42.896;23.912;2022-10-24T07:37:53;4.28;;;3.40;;
6614;SDS011;3343;42.896;23.912;2022-10-24T07:40:20;4.57;;;3.42;;
6614;SDS011;3343;42.896;23.912;2022-10-24T07:42:47;5.10;;;4.05;;
6614;SDS011;3343;42.896;23.912;2022-10-24T07:45:14;6.60;;;3.80;;
6614;SDS011;3343;42.896;23.912;2022-10-24T07:47:41;6.43;;;3.72;;
6614;SDS011;3343;42.896;23.912;2022-10-24T07:50:08;9.63;;;5.00;;
6614;SDS011;3343;42.896;23.912;2022-10-24T07:52:35;8.70;;;4.72;;
6614;SDS011;3343;42.896;23.912;2022-10-24T07:55:03;8.52;;;5.18;;
6614;SDS011;3343;42.896;23.912;2022-10-24T07:57:31;12.82;;;4.90;;
6614;SDS011;3343;42.896;23.912;2022-10-24T07:59:58;9.27;;;4.55;;
6614;SDS011;3343;42.896;23.912;2022-10-24T08:02:25;7.20;;;3.53;;
6614;SDS011;3343;42.896;23.912;2022-10-24T08:04:52;4.78;;;3.47;;
6614;SDS011;3343;42.896;23.912;2022-10-24T08:07:19;4.57;;;3.38;;
6614;SDS011;3343;42.896;23.912;2022-10-24T08:09:46;7.90;;;3.38;;
6614;SDS011;3343;42.896;23.912;2022-10-24T08:12:17;4.47;;;3.13;;
6614;SDS011;3343;42.896;23.912;2022-10-24T08:14:44;4.05;;;2.72;;
6614;SDS011;3343;42.896;23.912;2022-10-24T08:17:11;6.20;;;2.97;;
6614;SDS011;3343;42.896;23.912;2022-10-24T08:19:39;4.13;;;2.75;;
6614;SDS011;3343;42.896;23.912;2022-10-24T08:22:06;3.53;;;2.50;;
6614;SDS011;3343;42.896;23.912;2022-10-24T08:24:34;4.20;;;2.50;;
6614;SDS011;3343;42.896;23.912;2022-10-24T08:27:01;6.90;;;2.78;;
6614;SDS011;3343;42.896;23.912;2022-10-24T08:29:29;5.65;;;2.88;;
6614;SDS011;3343;42.896;23.912;2022-10-24T08:31:56;3.58;;;2.30;;
6614;SDS011;3343;42.896;23.912;2022-10-24T08:34:23;4.07;;;2.50;;
6614;SDS011;3343;42.896;23.912;2022-10-24T08:36:50;7.53;;;3.47;;
6614;SDS011;3343;42.896;23.912;2022-10-24T08:39:17;4.93;;;2.83;;
6614;SDS011;3343;42.896;23.912;2022-10-24T08:41:45;3.35;;;2.80;;
6614;SDS011;3343;42.896;23.912;2022-10-24T08:44:20;4.22;;;3.08;;
6614;SDS011;3343;42.896;23.912;2022-10-24T08:46:53;5.55;;;2.95;;
6614;SDS011;3343;42.896;23.912;2022-10-24T08:49:28;4.90;;;2.47;;
6614;SDS011;3343;42.896;23.912;2022-10-24T08:52:01;9.00;;;2.70;;
6614;SDS011;3343;42.896;23.912;2022-10-24T08:54:33;3.08;;;2.17;;
6614;SDS011;3343;42.896;23.912;2022-10-24T08:57:03;4.47;;;2.25;;
6614;SDS011;3343;42.896;23.912;2022-10-24T08:59:33;3.90;;;2.45;;
6614;SDS011;3343;42.896;23.912;2022-10-24T09:02:03;4.95;;;2.22;;
6614;SDS011;3343;42.896;23.912;2022-10-24T09:04:39;3.08;;;2.10;;
6614;SDS011;3343;42.896;23.912;2022-10-24T09:07:13;7.30;;;2.40;;
6614;SDS011;3343;42.896;23.912;2022-10-24T09:09:44;3.08;;;2.47;;
6614;SDS011;3343;42.896;23.912;2022-10-24T09:12:14;5.00;;;2.10;;
6614;SDS011;3343;42.896;23.912;2022-10-24T09:14:43;7.25;;;2.55;;
6614;SDS011;3343;42.896;23.912;2022-10-24T09:17:13;6.25;;;2.40;;
6614;SDS011;3343;42.896;23.912;2022-10-24T09:19:43;4.57;;;2.20;;
6614;SDS011;3343;42.896;23.912;2022-10-24T09:22:16;6.60;;;2.60;;
6614;SDS011;3343;42.896;23.912;2022-10-24T09:24:44;6.53;;;2.13;;
6614;SDS011;3343;42.896;23.912;2022-10-24T09:27:15;6.22;;;2.38;;
6614;SDS011;3343;42.896;23.912;2022-10-24T09:29:45;2.63;;;2.17;;
6614;SDS011;3343;42.896;23.912;2022-10-24T09:32:14;5.28;;;2.50;;
6614;SDS011;3343;42.896;23.912;2022-10-24T09:34:43;7.03;;;2.80;;
6614;SDS011;3343;42.896;23.912;2022-10-24T09:37:29;4.68;;;1.83;;
6614;SDS011;3343;42.896;23.912;2022-10-24T09:40:06;9.35;;;2.22;;
6614;SDS011;3343;42.896;23.912;2022-10-24T09:42:37;4.05;;;1.90;;
6614;SDS011;3343;42.896;23.912;2022-10-24T09:47:58;3.70;;;2.50;;
6614;SDS011;3343;42.896;23.912;2022-10-24T09:50:27;3.08;;;2.33;;
6614;SDS011;3343;42.896;23.912;2022-10-24T09:52:57;3.85;;;2.42;;
6614;SDS011;3343;42.896;23.912;2022-10-24T09:55:25;8.93;;;3.03;;
6614;SDS011;3343;42.896;23.912;2022-10-24T09:57:55;6.88;;;2.40;;
6614;SDS011;3343;42.896;23.912;2022-10-24T10:00:29;6.25;;;3.50;;
6614;SDS011;3343;42.896;23.912;2022-10-24T10:03:05;6.55;;;2.67;;
6614;SDS011;3343;42.896;23.912;2022-10-24T10:05:44;4.82;;;2.58;;
6614;SDS011;3343;42.896;23.912;2022-10-24T10:08:18;8.10;;;2.45;;
6614;SDS011;3343;42.896;23.912;2022-10-24T10:10:57;5.05;;;2.35;;
6614;SDS011;3343;42.896;23.912;2022-10-24T10:13:27;4.75;;;2.40;;
6614;SDS011;3343;42.896;23.912;2022-10-24T10:15:55;9.57;;;2.75;;
6614;SDS011;3343;42.896;23.912;2022-10-24T10:18:30;3.80;;;1.88;;
6614;SDS011;3343;42.896;23.912;2022-10-24T10:21:08;4.20;;;2.25;;
6614;SDS011;3343;42.896;23.912;2022-10-24T10:23:38;5.88;;;2.35;;
6614;SDS011;3343;42.896;23.912;2022-10-24T10:26:22;2.65;;;2.20;;
6614;SDS011;3343;42.896;23.912;2022-10-24T10:28:54;5.70;;;2.47;;
6614;SDS011;3343;42.896;23.912;2022-10-24T10:31:27;5.90;;;2.30;;
6614;SDS011;3343;42.896;23.912;2022-10-24T10:34:23;5.50;;;2.45;;
6614;SDS011;3343;42.896;23.912;2022-10-24T10:36:58;4.70;;;2.65;;
6614;SDS011;3343;42.896;23.912;2022-10-24T10:42:38;7.88;;;2.35;;
6614;SDS011;3343;42.896;23.912;2022-10-24T10:45:15;4.18;;;1.95;;
6614;SDS011;3343;42.896;23.912;2022-10-24T10:47:50;4.88;;;2.30;;
6614;SDS011;3343;42.896;23.912;2022-10-24T10:50:27;7.47;;;2.28;;
6614;SDS011;3343;42.896;23.912;2022-10-24T10:53:03;7.20;;;2.55;;
6614;SDS011;3343;42.896;23.912;2022-10-24T10:55:37;7.47;;;2.38;;
6614;SDS011;3343;42.896;23.912;2022-10-24T10:58:16;4.82;;;2.45;;
6614;SDS011;3343;42.896;23.912;2022-10-24T11:00:52;4.20;;;2.65;;
6614;SDS011;3343;42.896;23.912;2022-10-24T11:03:27;12.90;;;2.65;;
6614;SDS011;3343;42.896;23.912;2022-10-24T11:11:47;5.55;;;2.33;;
6614;SDS011;3343;42.896;23.912;2022-10-24T11:14:22;5.40;;;2.42;;
6614;SDS011;3343;42.896;23.912;2022-10-24T11:16:56;6.15;;;2.85;;
6614;SDS011;3343;42.896;23.912;2022-10-24T11:19:28;9.65;;;2.30;;
6614;SDS011;3343;42.896;23.912;2022-10-24T11:22:02;6.30;;;2.55;;
6614;SDS011;3343;42.896;23.912;2022-10-24T11:24:31;5.57;;;2.20;;
6614;SDS011;3343;42.896;23.912;2022-10-24T11:27:08;4.78;;;2.53;;
6614;SDS011;3343;42.896;23.912;2022-10-24T11:29:39;5.32;;;2.60;;
6614;SDS011;3343;42.896;23.912;2022-10-24T11:32:13;4.22;;;2.08;;
6614;SDS011;3343;42.896;23.912;2022-10-24T11:34:45;8.90;;;2.58;;
6614;SDS011;3343;42.896;23.912;2022-10-24T11:37:19;7.38;;;2.63;;
6614;SDS011;3343;42.896;23.912;2022-10-24T11:39:51;10.82;;;2.92;;
6614;SDS011;3343;42.896;23.912;2022-10-24T11:42:24;4.28;;;2.72;;
6614;SDS011;3343;42.896;23.912;2022-10-24T11:44:58;4.68;;;2.05;;
6614;SDS011;3343;42.896;23.912;2022-10-24T11:50:38;7.28;;;2.55;;
6614;SDS011;3343;42.896;23.912;2022-10-24T11:53:16;11.40;;;2.58;;
6614;SDS011;3343;42.896;23.912;2022-10-24T11:55:53;11.25;;;2.95;;
6614;SDS011;3343;42.896;23.912;2022-10-24T11:58:22;8.80;;;2.47;;
6614;SDS011;3343;42.896;23.912;2022-10-24T12:00:57;6.32;;;2.72;;
6614;SDS011;3343;42.896;23.912;2022-10-24T12:03:47;13.07;;;2.78;;
6614;SDS011;3343;42.896;23.912;2022-10-24T12:06:39;3.35;;;2.50;;
6614;SDS011;3343;42.896;23.912;2022-10-24T12:12:33;4.25;;;2.10;;
6614;SDS011;3343;42.896;23.912;2022-10-24T12:15:18;8.65;;;1.98;;
6614;SDS011;3343;42.896;23.912;2022-10-24T12:17:58;8.52;;;2.42;;
6614;SDS011;3343;42.896;23.912;2022-10-24T12:20:30;6.60;;;2.65;;
6614;SDS011;3343;42.896;23.912;2022-10-24T12:22:58;7.65;;;2.85;;
6614;SDS011;3343;42.896;23.912;2022-10-24T12:25:29;7.38;;;2.90;;
6614;SDS011;3343;42.896;23.912;2022-10-24T12:28:00;2.10;;;1.65;;
6614;SDS011;3343;42.896;23.912;2022-10-24T12:30:29;7.82;;;2.65;;
6614;SDS011;3343;42.896;23.912;2022-10-24T12:33:05;8.98;;;2.45;;
6614;SDS011;3343;42.896;23.912;2022-10-24T12:35:43;4.20;;;2.40;;
6614;SDS011;3343;42.896;23.912;2022-10-24T12:38:17;6.35;;;2.20;;
6614;SDS011;3343;42.896;23.912;2022-10-24T12:41:02;6.72;;;2.60;;
6614;SDS011;3343;42.896;23.912;2022-10-24T12:43:35;10.88;;;2.10;;
6614;SDS011;3343;42.896;23.912;2022-10-24T12:49:14;3.67;;;2.15;;
6614;SDS011;3343;42.896;23.912;2022-10-24T12:51:45;5.07;;;2.00;;
6614;SDS011;3343;42.896;23.912;2022-10-24T12:54:15;4.15;;;2.13;;
6614;SDS011;3343;42.896;23.912;2022-10-24T12:59:49;4.60;;;2.47;;
6614;SDS011;3343;42.896;23.912;2022-10-24T13:05:29;5.20;;;2.55;;
6614;SDS011;3343;42.896;23.912;2022-10-24T13:08:26;9.43;;;2.58;;
6614;SDS011;3343;42.896;23.912;2022-10-24T13:11:11;7.90;;;2.67;;
6614;SDS011;3343;42.896;23.912;2022-10-24T13:16:53;6.03;;;2.08;;
6614;SDS011;3343;42.896;23.912;2022-10-24T13:19:27;5.03;;;2.13;;
6614;SDS011;3343;42.896;23.912;2022-10-24T13:21:55;4.28;;;2.08;;
6614;SDS011;3343;42.896;23.912;2022-10-24T13:24:26;9.25;;;2.35;;
6614;SDS011;3343;42.896;23.912;2022-10-24T13:30:01;5.60;;;2.45;;
6614;SDS011;3343;42.896;23.912;2022-10-24T13:36:08;3.75;;;2.15;;
6614;SDS011;3343;42.896;23.912;2022-10-24T13:38:41;8.77;;;2.40;;
6614;SDS011;3343;42.896;23.912;2022-10-24T13:41:16;3.97;;;2.42;;
6614;SDS011;3343;42.896;23.912;2022-10-24T13:43:49;5.20;;;2.40;;
6614;SDS011;3343;42.896;23.912;2022-10-24T13:46:19;6.07;;;2.05;;
6614;SDS011;3343;42.896;23.912;2022-10-24T13:48:53;6.93;;;2.50;;
6614;SDS011;3343;42.896;23.912;2022-10-24T13:51:24;7.05;;;2.47;;
6614;SDS011;3343;42.896;23.912;2022-10-24T13:54:01;3.53;;;2.20;;
6614;SDS011;3343;42.896;23.912;2022-10-24T13:56:34;4.60;;;2.13;;
6614;SDS011;3343;42.896;23.912;2022-10-24T13:59:03;11.25;;;3.13;;
6614;SDS011;3343;42.896;23.912;2022-10-24T14:01:32;5.15;;;2.83;;
6614;SDS011;3343;42.896;23.912;2022-10-24T14:04:00;6.93;;;3.13;;
6614;SDS011;3343;42.896;23.912;2022-10-24T14:06:29;3.63;;;2.53;;
6614;SDS011;3343;42.896;23.912;2022-10-24T14:08:59;4.05;;;1.95;;
6614;SDS011;3343;42.896;23.912;2022-10-24T14:11:28;5.10;;;2.90;;
6614;SDS011;3343;42.896;23.912;2022-10-24T14:13:56;3.05;;;2.15;;
6614;SDS011;3343;42.896;23.912;2022-10-24T14:16:25;5.10;;;2.58;;
6614;SDS011;3343;42.896;23.912;2022-10-24T14:19:08;5.88;;;2.50;;
6614;SDS011;3343;42.896;23.912;2022-10-24T14:21:39;4.90;;;2.80;;
6614;SDS011;3343;42.896;23.912;2022-10-24T14:24:09;12.75;;;2.70;;
6614;SDS011;3343;42.896;23.912;2022-10-24T14:26:40;9.43;;;3.10;;
6614;SDS011;3343;42.896;23.912;2022-10-24T14:29:17;6.30;;;2.60;;
6614;SDS011;3343;42.896;23.912;2022-10-24T14:31:52;5.28;;;2.75;;
6614;SDS011;3343;42.896;23.912;2022-10-24T14:34:21;5.03;;;2.45;;
6614;SDS011;3343;42.896;23.912;2022-10-24T14:36:50;7.50;;;2.35;;
6614;SDS011;3343;42.896;23.912;2022-10-24T14:39:20;5.13;;;2.60;;
6614;SDS011;3343;42.896;23.912;2022-10-24T14:41:49;5.88;;;2.72;;
6614;SDS011;3343;42.896;23.912;2022-10-24T14:44:17;11.70;;;2.55;;
6614;SDS011;3343;42.896;23.912;2022-10-24T14:46:59;4.80;;;2.03;;
6614;SDS011;3343;42.896;23.912;2022-10-24T14:49:29;8.07;;;2.95;;
6614;SDS011;3343;42.896;23.912;2022-10-24T14:52:06;4.53;;;2.28;;
6614;SDS011;3343;42.896;23.912;2022-10-24T14:54:35;7.22;;;2.90;;
6614;SDS011;3343;42.896;23.912;2022-10-24T14:57:03;5.82;;;2.35;;
6614;SDS011;3343;42.896;23.912;2022-10-24T14:59:40;5.38;;;3.00;;
6614;SDS011;3343;42.896;23.912;2022-10-24T15:02:13;5.95;;;3.08;;
6614;SDS011;3343;42.896;23.912;2022-10-24T15:04:46;2.88;;;2.15;;
6614;SDS011;3343;42.896;23.912;2022-10-24T15:07:27;8.48;;;3.42;;
6614;SDS011;3343;42.896;23.912;2022-10-24T15:09:56;6.55;;;2.50;;
6614;SDS011;3343;42.896;23.912;2022-10-24T15:12:30;6.82;;;2.17;;
6614;SDS011;3343;42.896;23.912;2022-10-24T15:15:18;6.28;;;2.72;;
6614;SDS011;3343;42.896;23.912;2022-10-24T15:17:49;10.23;;;2.88;;
6614;SDS011;3343;42.896;23.912;2022-10-24T15:20:17;7.25;;;2.60;;
6614;SDS011;3343;42.896;23.912;2022-10-24T15:22:47;6.50;;;2.65;;
6614;SDS011;3343;42.896;23.912;2022-10-24T15:25:16;5.30;;;2.92;;
6614;SDS011;3343;42.896;23.912;2022-10-24T15:27:46;11.45;;;3.10;;
6614;SDS011;3343;42.896;23.912;2022-10-24T15:30:13;10.30;;;2.88;;
6614;SDS011;3343;42.896;23.912;2022-10-24T15:32:41;6.55;;;2.78;;
6614;SDS011;3343;42.896;23.912;2022-10-24T15:35:09;6.55;;;3.03;;
6614;SDS011;3343;42.896;23.912;2022-10-24T15:37:36;8.93;;;2.53;;
6614;SDS011;3343;42.896;23.912;2022-10-24T15:40:06;5.78;;;2.67;;
6614;SDS011;3343;42.896;23.912;2022-10-24T15:42:40;8.13;;;2.30;;
6614;SDS011;3343;42.896;23.912;2022-10-24T15:45:11;5.87;;;2.60;;
6614;SDS011;3343;42.896;23.912;2022-10-24T15:47:39;8.27;;;2.30;;
6614;SDS011;3343;42.896;23.912;2022-10-24T15:50:06;4.50;;;2.80;;
6614;SDS011;3343;42.896;23.912;2022-10-24T15:52:34;4.73;;;2.43;;
6614;SDS011;3343;42.896;23.912;2022-10-24T15:55:01;4.97;;;2.63;;
6614;SDS011;3343;42.896;23.912;2022-10-24T15:57:29;5.10;;;2.30;;
6614;SDS011;3343;42.896;23.912;2022-10-24T15:59:56;4.18;;;2.78;;